Tohshi — 3EJO5 — position and weather

sailwx.info

Track history (hours):
 
Tides and Currents Weather Stations Pressure Air Temp Water Temp Dewpoint Dewpoint Depression Visibility Wind Speed Wind Dir Waves Ship Positions

Tohshi

Last reported at 2016-Jun-25 18:29 UTC. Time now 2016-Jun-30 21:29 UTC.
Position N 01°57' E 102°15'.

Length 333 m; beam 60 m.

Type: Tanker. MMSI: 372582000.

Date/timePositionNaut miles runAvg speedWind from/ knotsBaromVisibWave heightAir tempDewpointWater temp
2016-Jun-25 18:29N 01°57' E 102°15'1112.2
2016-Jun-25 17:33N 01°52' E 102°25'1211.6
2016-Jun-25 16:33N 01°47' E 102°36'7311.8
2016-Jun-25 10:23N 01°11' E 103°39'6 5.8
2016-Jun-25 09:21N 01°08' E 103°44'910.7
2016-Jun-25 08:31N 01°12' E 103°52'1212.0
2016-Jun-25 07:33N 01°16' E 104°03'  
2016-Jun-16 10:33N 34°34' E 139°36'1413.6
2016-Jun-16 09:31N 34°48' E 139°39'1313.7
2016-Jun-16 08:33N 35°01' E 139°40'1212.5
2016-Jun-16 07:33N 35°13' E 139°46'1212.0
2016-Jun-16 06:33N 35°24' E 139°43'1212.2
2016-Jun-16 05:33N 35°31' E 139°56'1 0.6
2016-Jun-16 04:32N 35°31' E 139°56'0 0.0
2016-Jun-16 03:32N 35°31' E 139°56'0 0.0
2016-Jun-16 02:32N 35°31' E 139°56'0 0.0
2016-Jun-16 01:32N 35°31' E 139°56'0 0.0
2016-Jun-16 00:32N 35°31' E 139°56'0 0.0
2016-Jun-15 23:32N 35°31' E 139°56'0 0.0
2016-Jun-15 22:29N 35°31' E 139°56'0 0.0
2016-Jun-15 21:32N 35°31' E 139°56'0 0.0
2016-Jun-15 20:32N 35°31' E 139°56'0 0.0
2016-Jun-15 19:32N 35°31' E 139°56'0 0.0
2016-Jun-15 18:32N 35°31' E 139°56'  
Track history (hours):
 
Tides and Currents Weather Stations Pressure Air Temp Water Temp Dewpoint Dewpoint Depression Visibility Wind Speed Wind Dir Waves Ship Positions

Tohshi

Last reported at 2016-Jun-25 18:29 UTC. Time now 2016-Jun-30 21:29 UTC.
Position N 01°57' E 102°15'.

Length 333 m; beam 60 m.

Type: Tanker. MMSI: 372582000.

Date/timePositionNaut miles runAvg speedWind from/ knotsBaromVisibWave heightAir tempDewpointWater temp
2016-Jun-25 18:29N 01°57' E 102°15'1112.2
2016-Jun-25 17:33N 01°52' E 102°25'1211.6
2016-Jun-25 16:33N 01°47' E 102°36'7311.8
2016-Jun-25 10:23N 01°11' E 103°39'6 5.8
2016-Jun-25 09:21N 01°08' E 103°44'910.7
2016-Jun-25 08:31N 01°12' E 103°52'1212.0
2016-Jun-25 07:33N 01°16' E 104°03'  
2016-Jun-16 10:33N 34°34' E 139°36'1413.6
2016-Jun-16 09:31N 34°48' E 139°39'1313.7
2016-Jun-16 08:33N 35°01' E 139°40'1212.5
2016-Jun-16 07:33N 35°13' E 139°46'1212.0
2016-Jun-16 06:33N 35°24' E 139°43'1212.2
2016-Jun-16 05:33N 35°31' E 139°56'1 0.6
2016-Jun-16 04:32N 35°31' E 139°56'0 0.0
2016-Jun-16 03:32N 35°31' E 139°56'0 0.0
2016-Jun-16 02:32N 35°31' E 139°56'0 0.0
2016-Jun-16 01:32N 35°31' E 139°56'0 0.0
2016-Jun-16 00:32N 35°31' E 139°56'0 0.0
2016-Jun-15 23:32N 35°31' E 139°56'0 0.0
2016-Jun-15 22:29N 35°31' E 139°56'0 0.0
2016-Jun-15 21:32N 35°31' E 139°56'0 0.0
2016-Jun-15 20:32N 35°31' E 139°56'0 0.0
2016-Jun-15 19:32N 35°31' E 139°56'0 0.0
2016-Jun-15 18:32N 35°31' E 139°56'  

Dump ship's entire track history